sensor_id;sensor_type;location;lat;lon;timestamp;pressure;altitude;pressure_sealevel;temperature;humidity
52591;BME280;38483;42.620;25.394;2022-12-18T00:01:25;97582.34;;;10.03;100.00
52591;BME280;38483;42.620;25.394;2022-12-18T00:03:54;97615.28;;;10.24;100.00
52591;BME280;38483;42.620;25.394;2022-12-18T00:06:24;97625.66;;;10.22;100.00
52591;BME280;38483;42.620;25.394;2022-12-18T00:08:52;97633.22;;;10.28;100.00
52591;BME280;38483;42.620;25.394;2022-12-18T00:11:21;97633.63;;;10.18;100.00
52591;BME280;38483;42.620;25.394;2022-12-18T00:13:49;97634.06;;;10.29;100.00
52591;BME280;38483;42.620;25.394;2022-12-18T00:16:21;97638.41;;;10.28;100.00
52591;BME280;38483;42.620;25.394;2022-12-18T00:18:49;97633.13;;;10.31;100.00
52591;BME280;38483;42.620;25.394;2022-12-18T00:21:17;97596.31;;;10.23;100.00
52591;BME280;38483;42.620;25.394;2022-12-18T00:23:46;97637.66;;;10.49;100.00
52591;BME280;38483;42.620;25.394;2022-12-18T00:26:18;97627.06;;;10.55;99.78
52591;BME280;38483;42.620;25.394;2022-12-18T00:28:46;97641.97;;;10.49;98.61
52591;BME280;38483;42.620;25.394;2022-12-18T00:31:19;97647.22;;;10.71;99.25
52591;BME280;38483;42.620;25.394;2022-12-18T00:33:46;97660.78;;;10.54;98.58
52591;BME280;38483;42.620;25.394;2022-12-18T00:36:20;97640.44;;;10.43;98.85
52591;BME280;38483;42.620;25.394;2022-12-18T00:38:48;97661.59;;;10.56;98.96
52591;BME280;38483;42.620;25.394;2022-12-18T00:41:18;97665.81;;;10.58;99.38
52591;BME280;38483;42.620;25.394;2022-12-18T00:44:06;97674.00;;;10.71;98.63
52591;BME280;38483;42.620;25.394;2022-12-18T00:46:33;97676.69;;;10.68;98.86
52591;BME280;38483;42.620;25.394;2022-12-18T00:49:01;97685.00;;;10.76;97.86
52591;BME280;38483;42.620;25.394;2022-12-18T00:51:28;97667.00;;;10.73;97.81
52591;BME280;38483;42.620;25.394;2022-12-18T00:53:55;97684.28;;;10.73;97.17
52591;BME280;38483;42.620;25.394;2022-12-18T00:56:22;97679.91;;;10.75;97.76
52591;BME280;38483;42.620;25.394;2022-12-18T00:58:49;97670.03;;;10.84;97.16
52591;BME280;38483;42.620;25.394;2022-12-18T01:01:17;97669.75;;;10.69;96.68
52591;BME280;38483;42.620;25.394;2022-12-18T01:03:44;97670.13;;;10.58;97.84
52591;BME280;38483;42.620;25.394;2022-12-18T01:06:15;97666.44;;;10.65;98.54
52591;BME280;38483;42.620;25.394;2022-12-18T01:08:42;97631.16;;;10.38;98.37
52591;BME280;38483;42.620;25.394;2022-12-18T01:11:17;97671.31;;;10.49;99.10
52591;BME280;38483;42.620;25.394;2022-12-18T01:13:44;97678.47;;;10.66;98.62
52591;BME280;38483;42.620;25.394;2022-12-18T01:16:12;97667.78;;;10.75;97.97
52591;BME280;38483;42.620;25.394;2022-12-18T01:18:40;97669.38;;;10.79;97.99
52591;BME280;38483;42.620;25.394;2022-12-18T01:21:08;97663.41;;;10.77;97.49
52591;BME280;38483;42.620;25.394;2022-12-18T01:23:36;97665.31;;;10.72;97.29
52591;BME280;38483;42.620;25.394;2022-12-18T01:26:10;97667.16;;;10.69;96.86
52591;BME280;38483;42.620;25.394;2022-12-18T01:28:37;97670.16;;;10.81;96.77
52591;BME280;38483;42.620;25.394;2022-12-18T01:31:26;97681.38;;;10.82;97.13
52591;BME280;38483;42.620;25.394;2022-12-18T01:33:54;97666.81;;;10.54;97.25
52591;BME280;38483;42.620;25.394;2022-12-18T01:36:24;97667.56;;;10.58;98.03
52591;BME280;38483;42.620;25.394;2022-12-18T01:38:52;97656.88;;;10.67;97.58
52591;BME280;38483;42.620;25.394;2022-12-18T01:41:24;97668.06;;;10.68;97.49
52591;BME280;38483;42.620;25.394;2022-12-18T01:43:56;97667.09;;;10.70;96.85
52591;BME280;38483;42.620;25.394;2022-12-18T01:46:25;97656.81;;;10.69;96.22
52591;BME280;38483;42.620;25.394;2022-12-18T01:48:57;97663.94;;;10.62;96.12
52591;BME280;38483;42.620;25.394;2022-12-18T01:51:28;97659.41;;;10.69;96.17
52591;BME280;38483;42.620;25.394;2022-12-18T01:53:57;97663.50;;;10.74;96.33
52591;BME280;38483;42.620;25.394;2022-12-18T01:56:24;97663.00;;;10.64;96.41
52591;BME280;38483;42.620;25.394;2022-12-18T01:59:10;97671.66;;;10.63;96.58
52591;BME280;38483;42.620;25.394;2022-12-18T02:01:38;97652.94;;;10.57;96.30
52591;BME280;38483;42.620;25.394;2022-12-18T02:04:34;97673.25;;;10.43;96.72
52591;BME280;38483;42.620;25.394;2022-12-18T02:07:11;97687.59;;;10.53;97.33
52591;BME280;38483;42.620;25.394;2022-12-18T02:09:48;97691.78;;;10.57;97.16
52591;BME280;38483;42.620;25.394;2022-12-18T02:12:23;97683.22;;;10.55;97.24
52591;BME280;38483;42.620;25.394;2022-12-18T02:18:03;97682.06;;;10.62;96.05
52591;BME280;38483;42.620;25.394;2022-12-18T02:23:20;97669.66;;;10.47;96.73
52591;BME280;38483;42.620;25.394;2022-12-18T02:26:07;97670.56;;;10.46;97.69
52591;BME280;38483;42.620;25.394;2022-12-18T02:28:42;97638.03;;;10.14;98.14
52591;BME280;38483;42.620;25.394;2022-12-18T02:31:14;97680.03;;;10.47;97.93
52591;BME280;38483;42.620;25.394;2022-12-18T02:33:44;97669.78;;;10.44;97.83
52591;BME280;38483;42.620;25.394;2022-12-18T02:36:12;97681.00;;;10.44;97.80
52591;BME280;38483;42.620;25.394;2022-12-18T02:39:02;97677.88;;;10.35;98.73
52591;BME280;38483;42.620;25.394;2022-12-18T02:42:23;97686.22;;;10.43;98.43
52591;BME280;38483;42.620;25.394;2022-12-18T02:45:26;97679.44;;;10.39;98.33
52591;BME280;38483;42.620;25.394;2022-12-18T02:47:53;97689.75;;;10.65;98.18
52591;BME280;38483;42.620;25.394;2022-12-18T02:50:33;97693.94;;;10.68;97.27
52591;BME280;38483;42.620;25.394;2022-12-18T02:56:05;97686.47;;;10.35;98.35
52591;BME280;38483;42.620;25.394;2022-12-18T02:58:37;97693.53;;;10.32;98.74
52591;BME280;38483;42.620;25.394;2022-12-18T03:06:35;97691.22;;;10.23;99.44
52591;BME280;38483;42.620;25.394;2022-12-18T03:09:10;97696.84;;;10.35;98.75
52591;BME280;38483;42.620;25.394;2022-12-18T03:11:40;97696.47;;;10.46;98.71
52591;BME280;38483;42.620;25.394;2022-12-18T03:14:29;97710.78;;;10.56;98.07
52591;BME280;38483;42.620;25.394;2022-12-18T03:17:00;97693.66;;;10.52;97.08
52591;BME280;38483;42.620;25.394;2022-12-18T03:19:29;97690.75;;;10.61;96.91
52591;BME280;38483;42.620;25.394;2022-12-18T03:22:02;97710.78;;;10.56;96.35
52591;BME280;38483;42.620;25.394;2022-12-18T03:24:39;97710.16;;;10.49;97.06
52591;BME280;38483;42.620;25.394;2022-12-18T03:27:12;97711.22;;;10.44;97.57
52591;BME280;38483;42.620;25.394;2022-12-18T03:29:51;97717.19;;;10.46;98.18
52591;BME280;38483;42.620;25.394;2022-12-18T03:32:28;97725.25;;;10.37;97.84
52591;BME280;38483;42.620;25.394;2022-12-18T03:35:02;97730.19;;;10.44;98.45
52591;BME280;38483;42.620;25.394;2022-12-18T03:37:34;97735.19;;;10.49;97.87
52591;BME280;38483;42.620;25.394;2022-12-18T03:40:03;97733.38;;;10.51;97.75
52591;BME280;38483;42.620;25.394;2022-12-18T03:42:56;97739.19;;;10.59;97.67
52591;BME280;38483;42.620;25.394;2022-12-18T03:45:51;97741.88;;;10.56;96.72
52591;BME280;38483;42.620;25.394;2022-12-18T03:48:41;97742.38;;;10.41;96.82
52591;BME280;38483;42.620;25.394;2022-12-18T03:54:00;97744.44;;;10.56;97.36
52591;BME280;38483;42.620;25.394;2022-12-18T03:56:36;97749.69;;;10.54;97.17
52591;BME280;38483;42.620;25.394;2022-12-18T03:59:07;97752.34;;;10.53;96.83
52591;BME280;38483;42.620;25.394;2022-12-18T04:01:40;97743.66;;;10.54;96.93
52591;BME280;38483;42.620;25.394;2022-12-18T04:04:12;97747.69;;;10.62;96.50
52591;BME280;38483;42.620;25.394;2022-12-18T04:06:43;97756.47;;;10.58;96.16
52591;BME280;38483;42.620;25.394;2022-12-18T04:09:13;97759.91;;;10.59;96.39
52591;BME280;38483;42.620;25.394;2022-12-18T04:11:43;97762.50;;;10.59;95.90
52591;BME280;38483;42.620;25.394;2022-12-18T04:14:13;97760.84;;;10.56;96.16
52591;BME280;38483;42.620;25.394;2022-12-18T04:16:44;97769.44;;;10.32;97.35
52591;BME280;38483;42.620;25.394;2022-12-18T04:19:14;97754.28;;;10.20;98.11
52591;BME280;38483;42.620;25.394;2022-12-18T04:21:43;97766.69;;;10.11;98.85
52591;BME280;38483;42.620;25.394;2022-12-18T04:24:12;97765.63;;;10.18;99.10
52591;BME280;38483;42.620;25.394;2022-12-18T04:26:45;97770.28;;;10.33;98.77
52591;BME280;38483;42.620;25.394;2022-12-18T04:29:17;97772.50;;;10.43;98.04
52591;BME280;38483;42.620;25.394;2022-12-18T04:31:44;97773.78;;;10.56;97.31
52591;BME280;38483;42.620;25.394;2022-12-18T04:34:11;97777.25;;;10.57;97.22
52591;BME280;38483;42.620;25.394;2022-12-18T04:36:46;97779.66;;;10.61;96.92
52591;BME280;38483;42.620;25.394;2022-12-18T04:39:19;97795.16;;;10.63;96.48
52591;BME280;38483;42.620;25.394;2022-12-18T04:41:48;97780.84;;;10.51;96.27
52591;BME280;38483;42.620;25.394;2022-12-18T04:44:15;97804.53;;;10.65;96.17
52591;BME280;38483;42.620;25.394;2022-12-18T04:46:42;97805.97;;;10.49;96.25
52591;BME280;38483;42.620;25.394;2022-12-18T04:49:10;97818.38;;;10.40;96.89
52591;BME280;38483;42.620;25.394;2022-12-18T04:51:40;97821.03;;;10.38;97.27
52591;BME280;38483;42.620;25.394;2022-12-18T04:54:06;97823.50;;;10.41;97.02
52591;BME280;38483;42.620;25.394;2022-12-18T04:56:33;97826.31;;;10.60;96.79
52591;BME280;38483;42.620;25.394;2022-12-18T04:59:00;97842.06;;;10.54;96.04
52591;BME280;38483;42.620;25.394;2022-12-18T05:01:27;97832.97;;;10.42;96.42
52591;BME280;38483;42.620;25.394;2022-12-18T05:04:01;97846.66;;;10.18;97.62
52591;BME280;38483;42.620;25.394;2022-12-18T05:06:28;97847.38;;;10.23;98.32
52591;BME280;38483;42.620;25.394;2022-12-18T05:08:55;97857.75;;;10.23;98.10
52591;BME280;38483;42.620;25.394;2022-12-18T05:11:22;97847.81;;;10.10;98.11
52591;BME280;38483;42.620;25.394;2022-12-18T05:13:49;97854.72;;;10.08;98.04
52591;BME280;38483;42.620;25.394;2022-12-18T05:16:15;97858.00;;;10.14;97.38
52591;BME280;38483;42.620;25.394;2022-12-18T05:18:43;97857.00;;;10.20;96.83
52591;BME280;38483;42.620;25.394;2022-12-18T05:21:10;97865.75;;;10.16;96.39
52591;BME280;38483;42.620;25.394;2022-12-18T05:23:37;97868.44;;;10.13;95.86
52591;BME280;38483;42.620;25.394;2022-12-18T05:26:06;97861.41;;;10.16;95.95
52591;BME280;38483;42.620;25.394;2022-12-18T05:28:35;97867.38;;;10.18;95.94
52591;BME280;38483;42.620;25.394;2022-12-18T05:31:03;97870.63;;;10.25;96.38
52591;BME280;38483;42.620;25.394;2022-12-18T05:33:33;97880.00;;;10.29;96.02
52591;BME280;38483;42.620;25.394;2022-12-18T05:36:02;97876.72;;;10.24;95.23
52591;BME280;38483;42.620;25.394;2022-12-18T05:38:30;97872.72;;;10.14;95.25
52591;BME280;38483;42.620;25.394;2022-12-18T05:40:58;97871.88;;;10.13;94.79
52591;BME280;38483;42.620;25.394;2022-12-18T05:43:26;97879.13;;;10.30;94.53
52591;BME280;38483;42.620;25.394;2022-12-18T05:45:53;97878.13;;;10.34;94.27
52591;BME280;38483;42.620;25.394;2022-12-18T05:48:20;97886.63;;;10.37;93.77
52591;BME280;38483;42.620;25.394;2022-12-18T05:50:49;97884.75;;;10.42;93.31
52591;BME280;38483;42.620;25.394;2022-12-18T05:53:18;97892.53;;;10.41;93.33
52591;BME280;38483;42.620;25.394;2022-12-18T05:55:46;97888.28;;;10.40;93.54
52591;BME280;38483;42.620;25.394;2022-12-18T05:58:14;97894.06;;;10.48;93.15
52591;BME280;38483;42.620;25.394;2022-12-18T06:00:45;97896.19;;;10.61;92.83
52591;BME280;38483;42.620;25.394;2022-12-18T06:03:13;97904.81;;;10.62;92.90
52591;BME280;38483;42.620;25.394;2022-12-18T06:05:42;97910.53;;;10.73;92.64
52591;BME280;38483;42.620;25.394;2022-12-18T06:08:10;97911.25;;;10.77;92.80
52591;BME280;38483;42.620;25.394;2022-12-18T06:10:38;97902.88;;;10.69;92.59
52591;BME280;38483;42.620;25.394;2022-12-18T06:13:06;97925.41;;;10.67;92.54
52591;BME280;38483;42.620;25.394;2022-12-18T06:15:36;97924.41;;;10.71;93.12
52591;BME280;38483;42.620;25.394;2022-12-18T06:18:03;97928.50;;;10.78;92.80
52591;BME280;38483;42.620;25.394;2022-12-18T06:20:30;97929.50;;;10.74;92.70
52591;BME280;38483;42.620;25.394;2022-12-18T06:22:59;97918.09;;;10.53;93.67
52591;BME280;38483;42.620;25.394;2022-12-18T06:25:26;97938.50;;;10.62;93.24
52591;BME280;38483;42.620;25.394;2022-12-18T06:27:53;97935.66;;;10.70;94.07
52591;BME280;38483;42.620;25.394;2022-12-18T06:30:20;97953.66;;;10.74;93.92
52591;BME280;38483;42.620;25.394;2022-12-18T06:32:48;97954.84;;;10.64;94.24
52591;BME280;38483;42.620;25.394;2022-12-18T06:35:22;97961.75;;;10.63;93.46
52591;BME280;38483;42.620;25.394;2022-12-18T06:37:49;97954.19;;;10.57;92.81
52591;BME280;38483;42.620;25.394;2022-12-18T06:40:16;97959.28;;;10.60;92.56
52591;BME280;38483;42.620;25.394;2022-12-18T06:42:43;97982.16;;;10.74;92.18
52591;BME280;38483;42.620;25.394;2022-12-18T06:45:10;97989.13;;;10.72;92.45
52591;BME280;38483;42.620;25.394;2022-12-18T06:47:38;97993.31;;;10.76;91.92
52591;BME280;38483;42.620;25.394;2022-12-18T06:50:05;97996.09;;;10.70;91.92
52591;BME280;38483;42.620;25.394;2022-12-18T06:52:33;97983.13;;;10.70;90.93
52591;BME280;38483;42.620;25.394;2022-12-18T06:55:00;97993.44;;;10.72;89.28
52591;BME280;38483;42.620;25.394;2022-12-18T06:57:28;97998.69;;;10.70;89.80
52591;BME280;38483;42.620;25.394;2022-12-18T06:59:55;97993.50;;;10.70;89.41
52591;BME280;38483;42.620;25.394;2022-12-18T07:02:22;98009.03;;;10.70;88.76
52591;BME280;38483;42.620;25.394;2022-12-18T07:04:49;98016.16;;;10.63;87.75
52591;BME280;38483;42.620;25.394;2022-12-18T07:07:15;98016.81;;;10.70;87.61
52591;BME280;38483;42.620;25.394;2022-12-18T07:09:42;98015.81;;;10.76;88.15
52591;BME280;38483;42.620;25.394;2022-12-18T07:12:09;98019.78;;;10.86;88.32
52591;BME280;38483;42.620;25.394;2022-12-18T07:14:36;98021.59;;;10.84;87.83
52591;BME280;38483;42.620;25.394;2022-12-18T07:17:03;98034.38;;;10.88;87.88
52591;BME280;38483;42.620;25.394;2022-12-18T07:19:32;98040.00;;;11.02;87.68
52591;BME280;38483;42.620;25.394;2022-12-18T07:22:01;98039.88;;;11.05;87.76
52591;BME280;38483;42.620;25.394;2022-12-18T07:24:40;98033.31;;;10.95;87.55
52591;BME280;38483;42.620;25.394;2022-12-18T07:27:07;98035.75;;;11.00;87.30
52591;BME280;38483;42.620;25.394;2022-12-18T07:29:35;98040.81;;;11.04;87.24
52591;BME280;38483;42.620;25.394;2022-12-18T07:32:03;98040.09;;;10.99;87.01
52591;BME280;38483;42.620;25.394;2022-12-18T07:34:30;98032.31;;;10.99;87.13
52591;BME280;38483;42.620;25.394;2022-12-18T07:36:57;98044.38;;;11.00;87.50
52591;BME280;38483;42.620;25.394;2022-12-18T07:39:25;98033.38;;;10.92;87.07
52591;BME280;38483;42.620;25.394;2022-12-18T07:41:52;98018.00;;;10.88;88.23
52591;BME280;38483;42.620;25.394;2022-12-18T07:44:39;98038.63;;;10.91;88.97
52591;BME280;38483;42.620;25.394;2022-12-18T07:47:06;98044.28;;;11.03;88.88
52591;BME280;38483;42.620;25.394;2022-12-18T07:49:38;98013.66;;;10.88;88.83
52591;BME280;38483;42.620;25.394;2022-12-18T07:52:06;98035.44;;;10.83;88.62
52591;BME280;38483;42.620;25.394;2022-12-18T07:54:34;98039.94;;;11.04;88.75
52591;BME280;38483;42.620;25.394;2022-12-18T07:57:01;98050.31;;;11.04;88.68
52591;BME280;38483;42.620;25.394;2022-12-18T07:59:28;98055.50;;;11.04;88.48
52591;BME280;38483;42.620;25.394;2022-12-18T08:01:55;98059.13;;;10.98;87.73
52591;BME280;38483;42.620;25.394;2022-12-18T08:04:22;98063.59;;;10.93;85.29
52591;BME280;38483;42.620;25.394;2022-12-18T08:06:50;98057.56;;;10.93;83.38
52591;BME280;38483;42.620;25.394;2022-12-18T08:09:17;98052.88;;;10.78;82.71
52591;BME280;38483;42.620;25.394;2022-12-18T08:11:44;98056.34;;;10.77;83.63
52591;BME280;38483;42.620;25.394;2022-12-18T08:14:11;98060.59;;;10.79;83.54
52591;BME280;38483;42.620;25.394;2022-12-18T08:16:38;98066.63;;;10.80;83.48
52591;BME280;38483;42.620;25.394;2022-12-18T08:19:06;98071.63;;;10.86;83.79
52591;BME280;38483;42.620;25.394;2022-12-18T08:21:33;98070.53;;;10.93;83.62
52591;BME280;38483;42.620;25.394;2022-12-18T08:24:01;98076.00;;;10.84;83.27
52591;BME280;38483;42.620;25.394;2022-12-18T08:26:29;98068.88;;;10.62;82.72
52591;BME280;38483;42.620;25.394;2022-12-18T08:28:58;98071.41;;;10.64;83.14
52591;BME280;38483;42.620;25.394;2022-12-18T08:31:27;98074.91;;;10.61;83.56
52591;BME280;38483;42.620;25.394;2022-12-18T08:33:54;98070.72;;;10.57;83.98
52591;BME280;38483;42.620;25.394;2022-12-18T08:36:23;98063.00;;;10.56;84.38
52591;BME280;38483;42.620;25.394;2022-12-18T08:38:51;98079.34;;;10.87;83.34
52591;BME280;38483;42.620;25.394;2022-12-18T08:41:20;98077.06;;;10.77;82.09
52591;BME280;38483;42.620;25.394;2022-12-18T08:43:47;98047.16;;;10.67;82.22
52591;BME280;38483;42.620;25.394;2022-12-18T08:46:40;98076.94;;;10.81;83.34
52591;BME280;38483;42.620;25.394;2022-12-18T08:49:09;98073.50;;;10.81;82.49
52591;BME280;38483;42.620;25.394;2022-12-18T08:51:36;98062.25;;;10.82;83.31
52591;BME280;38483;42.620;25.394;2022-12-18T08:54:04;98073.13;;;10.93;83.44
52591;BME280;38483;42.620;25.394;2022-12-18T08:56:32;98045.22;;;10.73;84.23
52591;BME280;38483;42.620;25.394;2022-12-18T08:58:59;98055.78;;;10.67;83.24
52591;BME280;38483;42.620;25.394;2022-12-18T09:01:27;98076.28;;;10.75;82.86
52591;BME280;38483;42.620;25.394;2022-12-18T09:03:54;98097.13;;;10.70;81.56
52591;BME280;38483;42.620;25.394;2022-12-18T09:06:22;98096.38;;;10.67;81.61
52591;BME280;38483;42.620;25.394;2022-12-18T09:08:49;98094.84;;;10.89;81.25
52591;BME280;38483;42.620;25.394;2022-12-18T09:11:25;98099.13;;;10.90;78.75
52591;BME280;38483;42.620;25.394;2022-12-18T09:14:25;98066.81;;;10.74;78.90
52591;BME280;38483;42.620;25.394;2022-12-18T09:16:52;98103.84;;;11.05;77.66
52591;BME280;38483;42.620;25.394;2022-12-18T09:19:19;98095.13;;;11.07;77.65
52591;BME280;38483;42.620;25.394;2022-12-18T09:21:46;98097.22;;;10.96;77.38
52591;BME280;38483;42.620;25.394;2022-12-18T09:24:14;98108.66;;;10.89;77.58
52591;BME280;38483;42.620;25.394;2022-12-18T09:26:42;98107.22;;;10.79;76.72
52591;BME280;38483;42.620;25.394;2022-12-18T09:29:14;98100.50;;;10.74;76.65
52591;BME280;38483;42.620;25.394;2022-12-18T09:31:44;98114.75;;;10.87;76.99
52591;BME280;38483;42.620;25.394;2022-12-18T09:34:11;98106.47;;;11.03;76.02
52591;BME280;38483;42.620;25.394;2022-12-18T09:36:38;98114.19;;;10.77;74.99
52591;BME280;38483;42.620;25.394;2022-12-18T09:39:05;98101.25;;;10.77;75.37
52591;BME280;38483;42.620;25.394;2022-12-18T09:41:42;98111.13;;;10.92;75.69
52591;BME280;38483;42.620;25.394;2022-12-18T09:49:45;98109.06;;;10.76;76.07
52591;BME280;38483;42.620;25.394;2022-12-18T09:52:23;98112.41;;;10.79;75.33
52591;BME280;38483;42.620;25.394;2022-12-18T09:55:03;98109.19;;;10.71;75.07
52591;BME280;38483;42.620;25.394;2022-12-18T09:57:33;98100.44;;;10.75;75.47
52591;BME280;38483;42.620;25.394;2022-12-18T10:00:21;98092.34;;;10.86;74.50
52591;BME280;38483;42.620;25.394;2022-12-18T10:02:53;98110.63;;;10.81;74.69
52591;BME280;38483;42.620;25.394;2022-12-18T10:14:09;98107.94;;;10.55;73.42
52591;BME280;38483;42.620;25.394;2022-12-18T10:22:18;98122.97;;;10.72;74.96
52591;BME280;38483;42.620;25.394;2022-12-18T10:27:26;98121.00;;;10.81;74.95
52591;BME280;38483;42.620;25.394;2022-12-18T10:29:54;98123.03;;;10.70;73.73
52591;BME280;38483;42.620;25.394;2022-12-18T10:32:27;98125.25;;;10.82;74.29
52591;BME280;38483;42.620;25.394;2022-12-18T10:34:57;98122.28;;;10.94;74.56
52591;BME280;38483;42.620;25.394;2022-12-18T10:37:28;98127.13;;;11.06;74.67
52591;BME280;38483;42.620;25.394;2022-12-18T10:40:14;98120.81;;;11.15;73.40
52591;BME280;38483;42.620;25.394;2022-12-18T10:43:10;98120.59;;;11.22;74.74
52591;BME280;38483;42.620;25.394;2022-12-18T10:45:38;98112.69;;;11.25;72.95
52591;BME280;38483;42.620;25.394;2022-12-18T10:48:19;98119.34;;;11.34;70.99
52591;BME280;38483;42.620;25.394;2022-12-18T10:50:48;98119.66;;;11.23;70.83
52591;BME280;38483;42.620;25.394;2022-12-18T10:53:36;98123.22;;;11.21;72.06
52591;BME280;38483;42.620;25.394;2022-12-18T10:56:06;98111.81;;;11.26;71.81
52591;BME280;38483;42.620;25.394;2022-12-18T10:58:34;98129.97;;;11.53;73.09
52591;BME280;38483;42.620;25.394;2022-12-18T11:06:14;98138.44;;;11.04;70.94
52591;BME280;38483;42.620;25.394;2022-12-18T11:08:57;98137.59;;;11.03;71.58
52591;BME280;38483;42.620;25.394;2022-12-18T11:11:24;98119.56;;;10.99;71.79
52591;BME280;38483;42.620;25.394;2022-12-18T11:14:17;98133.03;;;10.82;71.92
52591;BME280;38483;42.620;25.394;2022-12-18T11:16:49;98142.50;;;10.83;73.42
52591;BME280;38483;42.620;25.394;2022-12-18T11:19:39;98142.69;;;10.77;73.59
52591;BME280;38483;42.620;25.394;2022-12-18T11:22:23;98143.69;;;10.42;74.64
52591;BME280;38483;42.620;25.394;2022-12-18T11:25:02;98149.50;;;10.50;73.64
52591;BME280;38483;42.620;25.394;2022-12-18T11:28:40;98142.72;;;10.46;74.73
52591;BME280;38483;42.620;25.394;2022-12-18T11:31:26;98149.88;;;10.37;74.28
52591;BME280;38483;42.620;25.394;2022-12-18T11:34:19;98134.88;;;10.17;74.75
52591;BME280;38483;42.620;25.394;2022-12-18T11:36:58;98159.63;;;10.27;75.13
52591;BME280;38483;42.620;25.394;2022-12-18T11:39:37;98163.56;;;10.08;75.43
52591;BME280;38483;42.620;25.394;2022-12-18T11:42:17;98159.22;;;10.10;76.24
52591;BME280;38483;42.620;25.394;2022-12-18T11:50:13;98148.94;;;10.06;77.02
52591;BME280;38483;42.620;25.394;2022-12-18T11:52:42;98113.91;;;9.94;77.57
52591;BME280;38483;42.620;25.394;2022-12-18T11:55:14;98147.31;;;10.03;77.26
52591;BME280;38483;42.620;25.394;2022-12-18T11:58:11;98153.28;;;10.05;76.74
52591;BME280;38483;42.620;25.394;2022-12-18T12:00:47;98148.75;;;9.46;78.85
52591;BME280;38483;42.620;25.394;2022-12-18T12:09:37;98148.63;;;9.50;80.78
52591;BME280;38483;42.620;25.394;2022-12-18T12:18:23;98149.91;;;8.94;82.75
52591;BME280;38483;42.620;25.394;2022-12-18T12:29:39;98175.44;;;9.46;82.00
52591;BME280;38483;42.620;25.394;2022-12-18T12:38:17;98182.94;;;9.57;81.79
52591;BME280;38483;42.620;25.394;2022-12-18T12:40:53;98184.00;;;9.50;81.61
52591;BME280;38483;42.620;25.394;2022-12-18T12:43:44;98191.03;;;9.43;81.99
52591;BME280;38483;42.620;25.394;2022-12-18T12:46:37;98197.94;;;9.43;82.04
52591;BME280;38483;42.620;25.394;2022-12-18T12:49:13;98203.00;;;9.47;82.11
52591;BME280;38483;42.620;25.394;2022-12-18T12:51:46;98190.13;;;9.44;82.58
52591;BME280;38483;42.620;25.394;2022-12-18T12:54:21;98199.22;;;9.24;82.88
52591;BME280;38483;42.620;25.394;2022-12-18T12:56:57;98211.19;;;9.29;83.70
52591;BME280;38483;42.620;25.394;2022-12-18T12:59:35;98204.63;;;9.13;84.12
52591;BME280;38483;42.620;25.394;2022-12-18T13:02:31;98208.03;;;9.15;84.60
52591;BME280;38483;42.620;25.394;2022-12-18T13:08:08;98214.75;;;8.82;85.99
52591;BME280;38483;42.620;25.394;2022-12-18T13:10:37;98217.66;;;9.07;85.72
52591;BME280;38483;42.620;25.394;2022-12-18T13:13:07;98201.78;;;9.25;86.33
52591;BME280;38483;42.620;25.394;2022-12-18T13:15:40;98211.84;;;9.37;85.56
52591;BME280;38483;42.620;25.394;2022-12-18T13:20:40;98217.63;;;9.48;85.04
52591;BME280;38483;42.620;25.394;2022-12-18T13:26:40;98214.22;;;9.46;85.08
52591;BME280;38483;42.620;25.394;2022-12-18T13:34:15;98215.94;;;9.47;83.29
52591;BME280;38483;42.620;25.394;2022-12-18T13:36:54;98235.81;;;9.45;83.54
52591;BME280;38483;42.620;25.394;2022-12-18T13:39:24;98239.34;;;9.40;83.06
52591;BME280;38483;42.620;25.394;2022-12-18T13:44:35;98241.94;;;9.40;84.20
52591;BME280;38483;42.620;25.394;2022-12-18T13:47:30;98236.75;;;9.41;83.84
52591;BME280;38483;42.620;25.394;2022-12-18T13:49:58;98246.19;;;9.42;83.54
52591;BME280;38483;42.620;25.394;2022-12-18T13:52:28;98245.25;;;9.07;85.22
52591;BME280;38483;42.620;25.394;2022-12-18T13:54:57;98245.97;;;9.13;84.68
52591;BME280;38483;42.620;25.394;2022-12-18T13:57:30;98244.31;;;9.09;84.66
52591;BME280;38483;42.620;25.394;2022-12-18T13:59:58;98247.94;;;9.02;84.22
52591;BME280;38483;42.620;25.394;2022-12-18T14:02:27;98240.28;;;8.97;84.61
52591;BME280;38483;42.620;25.394;2022-12-18T14:04:55;98246.88;;;9.12;85.17
52591;BME280;38483;42.620;25.394;2022-12-18T14:07:28;98235.75;;;9.07;85.04
52591;BME280;38483;42.620;25.394;2022-12-18T14:10:13;98250.31;;;9.13;85.42
52591;BME280;38483;42.620;25.394;2022-12-18T14:13:06;98259.91;;;9.06;86.08
52591;BME280;38483;42.620;25.394;2022-12-18T14:15:40;98268.59;;;9.02;84.60
52591;BME280;38483;42.620;25.394;2022-12-18T14:18:24;98279.34;;;8.81;84.75
52591;BME280;38483;42.620;25.394;2022-12-18T14:20:55;98270.16;;;8.66;85.19
52591;BME280;38483;42.620;25.394;2022-12-18T14:23:38;98270.22;;;8.62;85.18
52591;BME280;38483;42.620;25.394;2022-12-18T14:26:25;98274.31;;;8.75;84.08
52591;BME280;38483;42.620;25.394;2022-12-18T14:29:25;98275.47;;;8.59;84.93
52591;BME280;38483;42.620;25.394;2022-12-18T14:32:14;98274.19;;;8.81;84.26
52591;BME280;38483;42.620;25.394;2022-12-18T14:34:53;98285.91;;;8.97;84.01
52591;BME280;38483;42.620;25.394;2022-12-18T14:37:25;98289.28;;;9.02;83.17
52591;BME280;38483;42.620;25.394;2022-12-18T14:40:03;98281.09;;;8.79;83.56
52591;BME280;38483;42.620;25.394;2022-12-18T14:42:37;98301.38;;;8.98;83.01
52591;BME280;38483;42.620;25.394;2022-12-18T14:48:08;98304.31;;;8.82;83.58
52591;BME280;38483;42.620;25.394;2022-12-18T14:50:38;98292.69;;;8.58;83.64
52591;BME280;38483;42.620;25.394;2022-12-18T14:53:05;98280.53;;;8.13;84.71
52591;BME280;38483;42.620;25.394;2022-12-18T14:55:33;98295.78;;;8.30;85.71